createdAt,value
2022-10-03T00:03:50.134Z,1.10
2022-10-03T00:10:30.434Z,1.40
2022-10-03T00:17:02.343Z,1.23
2022-10-03T00:23:41.990Z,1.33
2022-10-03T00:30:24.227Z,1.38
2022-10-03T00:36:35.421Z,1.10
2022-10-03T00:43:12.905Z,1.23
2022-10-03T00:49:28.647Z,1.10
2022-10-03T00:56:03.058Z,1.00
2022-10-03T01:02:25.744Z,1.40
2022-10-03T01:08:56.602Z,1.50
2022-10-03T01:15:07.910Z,1.10
2022-10-03T01:21:29.454Z,1.40
2022-10-03T01:28:14.964Z,1.38
2022-10-03T01:34:26.043Z,1.10
2022-10-03T01:40:40.861Z,1.23
2022-10-03T01:46:46.619Z,1.75
2022-10-03T01:53:09.404Z,1.58
2022-10-03T01:59:39.980Z,1.70
2022-10-03T02:05:54.844Z,1.50
2022-10-03T02:12:09.049Z,1.42
2022-10-03T02:18:14.294Z,1.58
2022-10-03T02:24:16.331Z,1.60
2022-10-03T02:30:30.578Z,1.23
2022-10-03T02:37:00.037Z,1.75
2022-10-03T02:43:36.312Z,1.90
2022-10-03T02:49:45.133Z,2.15
2022-10-03T02:55:53.299Z,1.67
2022-10-03T03:02:30.410Z,1.70
2022-10-03T03:08:34.020Z,1.77
2022-10-03T03:15:16.434Z,1.60
2022-10-03T03:21:47.314Z,1.83
2022-10-03T03:27:52.174Z,2.40
2022-10-03T03:34:19.422Z,1.70
2022-10-03T03:40:46.181Z,1.88
2022-10-03T03:47:03.432Z,2.05
2022-10-03T03:53:32.869Z,2.30
2022-10-03T04:00:05.515Z,1.92
2022-10-03T04:06:26.006Z,2.00
2022-10-03T04:12:37.874Z,4.72
2022-10-03T04:19:00.384Z,2.42
2022-10-03T04:25:54.966Z,2.05
2022-10-03T04:32:09.548Z,2.83
2022-10-03T04:38:21.574Z,2.58
2022-10-03T04:44:53.845Z,2.58
2022-10-03T04:51:01.740Z,1.80
2022-10-03T04:57:08.076Z,2.70
2022-10-03T05:03:29.195Z,2.10
2022-10-03T05:09:38.462Z,2.08
2022-10-03T05:16:05.202Z,2.08
2022-10-03T05:22:28.428Z,2.78
2022-10-03T05:28:37.147Z,3.20
2022-10-03T05:35:15.639Z,9.55
2022-10-03T05:41:17.874Z,2.67
2022-10-03T05:47:48.086Z,2.00
2022-10-03T05:54:27.625Z,2.30
2022-10-03T06:00:48.409Z,3.45
2022-10-03T06:07:14.464Z,4.53
2022-10-03T06:13:19.684Z,3.47
2022-10-03T06:19:53.011Z,2.83
2022-10-03T06:26:07.393Z,1.97
2022-10-03T06:32:19.875Z,2.13
2022-10-03T06:38:35.083Z,2.67
2022-10-03T06:44:46.307Z,3.03
2022-10-03T06:51:13.487Z,2.38
2022-10-03T06:57:38.164Z,3.03
2022-10-03T07:04:13.925Z,2.33
2022-10-03T07:10:47.276Z,3.25
2022-10-03T07:17:08.113Z,3.50
2022-10-03T07:23:40.704Z,3.88
2022-10-03T07:30:05.238Z,2.90
2022-10-03T07:36:41.562Z,2.95
2022-10-03T07:43:16.278Z,2.42
2022-10-03T07:49:25.687Z,3.25
2022-10-03T07:56:07.243Z,2.38
2022-10-03T08:02:42.036Z,2.75
2022-10-03T08:09:05.174Z,1.75
2022-10-03T08:15:21.751Z,1.48
2022-10-03T08:21:48.037Z,1.77
2022-10-03T08:28:26.097Z,1.40
2022-10-03T08:35:08.842Z,1.70
2022-10-03T08:41:22.996Z,2.15
2022-10-03T08:47:47.449Z,1.80
2022-10-03T08:53:52.381Z,1.60
2022-10-03T09:00:28.627Z,3.67
2022-10-03T09:07:23.387Z,3.28
2022-10-03T09:14:03.868Z,3.00
2022-10-03T09:20:44.269Z,1.98
2022-10-03T09:26:46.178Z,1.92
2022-10-03T09:32:48.067Z,1.92
2022-10-03T09:39:10.273Z,1.87
2022-10-03T09:45:47.559Z,1.27
2022-10-03T09:52:09.951Z,1.00
2022-10-03T09:58:24.088Z,1.45
2022-10-03T10:04:54.717Z,1.17
2022-10-03T10:11:12.298Z,1.00
2022-10-03T10:17:42.859Z,1.20
2022-10-03T10:24:19.137Z,1.38
2022-10-03T10:30:42.413Z,1.80
2022-10-03T10:37:21.806Z,1.20
2022-10-03T10:43:35.598Z,1.08
2022-10-03T10:49:57.547Z,0.90
2022-10-03T10:56:33.577Z,1.00
2022-10-03T11:03:17.462Z,0.80
2022-10-03T11:09:22.094Z,1.08
2022-10-03T11:15:43.821Z,1.95
2022-10-03T11:22:21.027Z,1.70
2022-10-03T11:29:08.644Z,1.35
2022-10-03T11:35:44.211Z,1.23
2022-10-03T11:42:27.951Z,0.75
2022-10-03T11:49:00.386Z,0.90
2022-10-03T11:55:27.107Z,1.10
2022-10-03T12:02:01.387Z,1.90
2022-10-03T12:08:28.099Z,1.15
2022-10-03T12:14:40.078Z,1.38
2022-10-03T12:20:44.864Z,1.33
2022-10-03T12:27:10.164Z,0.97
2022-10-03T12:33:29.698Z,2.25
2022-10-03T12:39:55.446Z,0.70
2022-10-03T12:46:28.509Z,3.55
2022-10-03T12:53:12.506Z,1.40
2022-10-03T12:59:19.321Z,1.83
2022-10-03T13:05:56.095Z,1.08
2022-10-03T13:12:24.211Z,1.42
2022-10-03T13:18:48.775Z,0.93
2022-10-03T13:25:00.328Z,0.93
2022-10-03T13:31:15.739Z,1.13
2022-10-03T13:37:48.958Z,3.08
2022-10-03T13:43:59.640Z,7.40
2022-10-03T13:50:06.501Z,3.17
2022-10-03T13:56:32.817Z,5.22
2022-10-03T14:02:42.609Z,8.52
2022-10-03T14:08:58.133Z,4.88
2022-10-03T14:15:15.678Z,1.45
2022-10-03T14:21:29.702Z,0.85
2022-10-03T14:27:46.531Z,0.85
2022-10-03T14:34:08.035Z,1.05
2022-10-03T14:40:20.246Z,0.63
2022-10-03T14:46:26.072Z,0.57
2022-10-03T14:52:44.281Z,0.80
2022-10-03T14:58:50.647Z,0.90
2022-10-03T15:04:56.639Z,0.63
2022-10-03T15:10:59.022Z,1.13
2022-10-03T15:17:04.263Z,0.85
2022-10-03T15:23:11.430Z,1.30
2022-10-03T15:29:18.311Z,1.13
2022-10-03T15:35:26.571Z,1.77
2022-10-03T15:41:36.798Z,2.38
2022-10-03T15:47:45.532Z,1.70
2022-10-03T15:53:51.992Z,1.92
2022-10-03T16:00:02.777Z,1.80
2022-10-03T16:06:35.974Z,2.60
2022-10-03T16:12:43.955Z,3.13
2022-10-03T16:19:02.607Z,3.83
2022-10-03T16:25:19.374Z,2.65
2022-10-03T16:31:28.941Z,3.63
2022-10-03T16:37:31.922Z,3.95
2022-10-03T16:43:35.076Z,3.67
2022-10-03T16:50:02.524Z,2.35
2022-10-03T16:56:08.438Z,2.70
2022-10-03T17:02:15.261Z,2.50
2022-10-03T17:08:40.667Z,2.38
2022-10-03T17:14:43.298Z,2.60
2022-10-03T17:20:52.307Z,2.67
2022-10-03T17:26:57.491Z,3.30
2022-10-03T17:33:09.018Z,3.40
2022-10-03T17:39:37.079Z,4.05
2022-10-03T17:45:48.325Z,4.25
2022-10-03T17:51:52.764Z,3.40
2022-10-03T17:57:58.817Z,3.80
2022-10-03T18:04:06.891Z,3.83
2022-10-03T18:10:19.608Z,3.47
2022-10-03T18:16:41.908Z,2.60
2022-10-03T18:22:49.402Z,2.92
2022-10-03T18:29:27.185Z,3.20
2022-10-03T18:35:34.875Z,3.40
2022-10-03T18:41:48.923Z,4.93
2022-10-03T18:47:56.648Z,4.43
2022-10-03T18:54:04.503Z,3.33
2022-10-03T19:00:20.647Z,3.50
2022-10-03T19:06:26.234Z,2.97
2022-10-03T19:12:34.821Z,3.30
2022-10-03T19:19:26.108Z,4.68
2022-10-03T19:25:29.730Z,3.90
2022-10-03T19:31:44.742Z,3.20
2022-10-03T19:37:52.208Z,4.63
2022-10-03T19:43:55.921Z,4.45
2022-10-03T19:50:06.808Z,3.63
2022-10-03T19:56:15.487Z,5.05
2022-10-03T20:02:25.984Z,4.45
2022-10-03T20:08:44.151Z,5.68
2022-10-03T20:14:51.745Z,4.22
2022-10-03T20:20:56.271Z,4.90
2022-10-03T20:27:13.528Z,5.30
2022-10-03T20:33:24.319Z,4.05
2022-10-03T20:39:31.786Z,4.35
2022-10-03T20:45:37.503Z,5.00
2022-10-03T20:51:43.694Z,4.72
2022-10-03T20:58:01.380Z,5.25
2022-10-03T21:04:18.911Z,4.10
2022-10-03T21:10:31.769Z,4.00
2022-10-03T21:16:45.208Z,5.30
2022-10-03T21:22:50.738Z,4.28
2022-10-03T21:29:27.031Z,3.85
2022-10-03T21:35:35.742Z,4.57
2022-10-03T21:41:51.350Z,4.60
2022-10-03T21:48:12.611Z,4.07
2022-10-03T21:54:36.482Z,4.35
2022-10-03T22:01:09.568Z,3.40
2022-10-03T22:07:17.927Z,3.77
2022-10-03T22:13:24.785Z,3.30
2022-10-03T22:19:32.724Z,3.70
2022-10-03T22:25:56.126Z,2.92
2022-10-03T22:32:07.633Z,3.63
2022-10-03T22:38:10.907Z,3.28
2022-10-03T22:44:14.893Z,2.83
2022-10-03T22:50:21.043Z,2.55
2022-10-03T22:56:35.061Z,2.65
2022-10-03T23:02:42.505Z,2.42
2022-10-03T23:09:05.394Z,2.10
2022-10-03T23:15:10.213Z,2.50
2022-10-03T23:21:13.042Z,2.42
2022-10-03T23:27:21.004Z,2.15
2022-10-03T23:33:35.057Z,2.15
2022-10-03T23:39:39.061Z,2.40
2022-10-03T23:45:43.175Z,2.00
2022-10-03T23:51:45.525Z,2.05
2022-10-03T23:57:48.392Z,2.05
